Terminal Aerodrome Forecast
Issued by NWS

Home | Current Version | Previous Version | Text Only | Print | Product List | Glossary On
Versions: 1 2 3 4 5 6 7 8 9 10 11 12 13 14 15 16 17 18 19 20 21
851
FTUS41 KRLX 120300 AAA
TAFCKB
TAF AMD
KCKB 120300Z 1203/1224 28003KT P6SM SCT250
     FM121500 21004KT P6SM BKN050
     FM121700 23005KT 3SM -SN OVC030
     FM122000 25007KT 2SM -SN OVC015=

USA.gov is the U.S. government's official web portal to all federal, state and local government web resources and services.